D/T METAR WX W/DIR W/SPE G/SPE TEMP DEWP
7/12/19 17:20 EGPN 071720Z 24014KT 9999 VCSH FEW006 SCT016 BKN024 09/08 Q0994 VCSH WSW (240°) 16.1mph 9°C 8°C
7/12/19 16:20 EGPN 071620Z 25010KT 9999 VCSH FEW006 SCT016 BKN024 09/08 Q0996 VCSH WSW (250°) 11.5mph 9°C 8°C
7/12/19 15:50 EGPN 071550Z 26007KT 9999 VCSH FEW006 SCT016 BKN024 08/07 Q0997 VCSH W (260°) 8.1mph 8°C 7°C
7/12/19 15:20 EGPN 071520Z 23007KT 9999 VCSH FEW008 SCT012 BKN022 08/07 Q0997 VCSH SW (230°) 8.1mph 8°C 7°C
7/12/19 14:50 EGPN 071450Z 24008KT 9000 -SHRA FEW005 BKN011 08/07 Q0998 -SHRA WSW (240°) 9.2mph 8°C 7°C
7/12/19 13:50 EGPN 071350Z 23010KT 8000 VCSH FEW005 BKN011 08/07 Q1000 VCSH SW (230°) 11.5mph 8°C 7°C
7/12/19 13:20 EGPN 071320Z 23011KT 9999 FEW005 BKN011 08/07 Q1000 SW (230°) 12.7mph 8°C 7°C
7/12/19 12:50 EGPN 071250Z 23010KT 9999 FEW005 BKN013 08/07 Q1001 SW (230°) 11.5mph 8°C 7°C
7/12/19 12:20 EGPN 071220Z VRB02KT 9999 FEW005 BKN013 08/07 Q1001 N (0°) 2.3mph 8°C 7°C
7/12/19 11:50 EGPN 071150Z VRB02KT 9999 FEW006 BKN018 08/07 Q1002 N (0°) 2.3mph 8°C 7°C
7/12/19 11:20 EGPN 071120Z 00000KT 9999 FEW006 SCT020 07/06 Q1003 N (0°) 7°C 6°C
7/12/19 10:50 EGPN 071050Z 29003KT 9999 FEW010 07/06 Q1003 WNW (290°) 3.5mph 7°C 6°C
7/12/19 10:20 EGPN 071020Z 31003KT 9999 FEW018 06/06 Q1003 NW (310°) 3.5mph 6°C 6°C
7/12/19 09:50 EGPN 070950Z 29003KT 9999 FEW018 05/05 Q1003 WNW (290°) 3.5mph 5°C 5°C
7/12/19 09:20 EGPN 070920Z 00000KT 9999 FEW018 05/04 Q1003 N (0°) 5°C 4°C
7/12/19 08:20 EGPN 070820Z 00000KT 9999 FEW038 04/04 Q1004 N (0°) 4°C 4°C
6/12/19 20:50 EGPN 062050Z 28009KT 9999 FEW020 07/05 Q0998 W (280°) 10.4mph 7°C 5°C
6/12/19 19:50 EGPN 061950Z 28010KT 9999 FEW020 07/05 Q0997 W (280°) 11.5mph 7°C 5°C
6/12/19 19:20 EGPN 061920Z 25014KT 9999 FEW020 08/06 Q0996 WSW (250°) 16.1mph 8°C 6°C
6/12/19 18:50 EGPN 061850Z 27009KT 9999 FEW020 07/06 Q0996 W (270°) 10.4mph 7°C 6°C
6/12/19 18:20 EGPN 061820Z 25011KT 9999 FEW020 08/06 Q0995 WSW (250°) 12.7mph 8°C 6°C
6/12/19 17:50 EGPN 061750Z 26006KT 9999 FEW020 07/05 Q0995 W (260°) 6.9mph 7°C 5°C
6/12/19 16:50 EGPN 061650Z 28008KT 9999 FEW020 07/06 Q0993 W (280°) 9.2mph 7°C 6°C
6/12/19 16:20 EGPN 061620Z 27012KT 9999 FEW020 08/07 Q0993 W (270°) 13.8mph 8°C 7°C
6/12/19 15:50 EGPN 061550Z 26006KT 9999 FEW020 08/07 Q0992 W (260°) 6.9mph 8°C 7°C
6/12/19 14:50 EGPN 061450Z 25012KT 9999 FEW020 09/07 Q0991 WSW (250°) 13.8mph 9°C 7°C
6/12/19 14:20 EGPN 061420Z 27010KT 9999 FEW020 09/08 Q0991 W (270°) 11.5mph 9°C 8°C
6/12/19 13:50 EGPN 061350Z 27008KT 9999 FEW020 09/08 Q0991 W (270°) 9.2mph 9°C 8°C
6/12/19 13:20 EGPN 061320Z 27008KT 9999 FEW020 09/07 Q0991 W (270°) 9.2mph 9°C 7°C
6/12/19 12:50 EGPN 061250Z 26012KT 9999 FEW020 10/08 Q0991 W (260°) 13.8mph 10°C 8°C
6/12/19 12:20 EGPN 061220Z 27011KT 9999 FEW020 09/07 Q0990 W (270°) 12.7mph 9°C 7°C
6/12/19 11:50 EGPN 061150Z 27008KT 9999 FEW020 09/08 Q0990 W (270°) 9.2mph 9°C 8°C
6/12/19 11:20 EGPN 061120Z 27013KT 9999 FEW020 10/08 Q0990 W (270°) 15.0mph 10°C 8°C
6/12/19 10:50 EGPN 061050Z 26011KT 9999 FEW010 09/08 Q0990 W (260°) 12.7mph 9°C 8°C
6/12/19 10:20 EGPN 061020Z 26007KT 9999 FEW010 SCT020 09/08 Q0990 W (260°) 8.1mph 9°C 8°C
6/12/19 09:50 EGPN 060950Z VRB03KT 9999 FEW010 SCT020 10/10 Q0990 N (0°) 3.5mph 10°C 10°C
6/12/19 09:20 EGPN 060920Z 27004KT 230V310 9999 FEW010 SCT020 09/09 Q0989 W (270°) 4.6mph 9°C 9°C
6/12/19 08:50 EGPN 060850Z 28005KT 9999 FEW009 BKN020 10/09 Q0990 W (280°) 5.8mph 10°C 9°C
6/12/19 08:20 EGPN 060820Z VRB03KT 9999 -RA FEW009 BKN020 10/10 Q0990 RERA -RA N (0°) 3.5mph 10°C 10°C
6/12/19 07:50 EGPN 060750Z 26004KT 4000 RA BKN009 BKN017 09/09 Q0990 RA W (260°) 4.6mph 9°C 9°C
6/12/19 07:20 EGPN 060720Z 26004KT 9999 BKN018 09/08 Q0990 W (260°) 4.6mph 9°C 8°C
6/12/19 06:20 EGPN 060620Z 26011KT 9999 BKN017 09/08 Q0991 W (260°) 12.7mph 9°C 8°C
5/12/19 20:20 EGPN 052020Z 25024KT 9999 SCT018 11/09 Q0989 WSW (250°) 27.6mph 11°C 9°C
5/12/19 19:50 EGPN 051950Z 25026KT 9999 BKN018 07/06 Q0989 WSW (250°) 29.9mph 7°C 6°C
5/12/19 19:20 EGPN 051920Z 25026KT 9999 BKN018 11/09 Q0989 WSW (250°) 29.9mph 11°C 9°C
5/12/19 18:50 EGPN 051850Z 24019KT 9999 -SHRA BKN018 09/08 Q0989 -SHRA WSW (240°) 21.9mph 9°C 8°C
5/12/19 18:20 EGPN 051820Z 24019KT 9999 -SHRA BKN018 09/08 Q0990 -SHRA WSW (240°) 21.9mph 9°C 8°C
5/12/19 17:50 EGPN 051750Z 24018KT 9999 -SHRA BKN018 09/08 Q0990 -SHRA WSW (240°) 20.7mph 9°C 8°C